Broadstairs, United Kingdom
Current Conditions -  °F | °C
As of 9:50 AM on Saturday 29 Nov 2014 (Local Time) from EGMC Reporting Station
Clear Clear  
Wind Chill: 50°   Ceiling: Unl
Heat Index: 50°   Visibility: 5mi
Dew Point: 46°   Wind: 9mph
Humidity: 87%   Direction: 110°ESE
Pressure: 29.85"   Gusts: NA
Location:  51.36°N, 1.44°E
Report Text: EGMC 290950Z 11008KT 8000 NSC 10/08 Q1011
Loading
Personal Weather Stations






























Interactive Weather Map New forecast layout! Learn more

10-Day Weather Forecast

Advertisements
Track Severe Weather on mobile